sensor_id;sensor_type;location;lat;lon;timestamp;temperature;humidity
5210;DHT22;2624;48.048;11.706;2022-12-07T00:03:08;1.90;99.90
5210;DHT22;2624;48.048;11.706;2022-12-07T00:08:09;1.90;99.90
5210;DHT22;2624;48.048;11.706;2022-12-07T00:13:13;1.90;99.90
5210;DHT22;2624;48.048;11.706;2022-12-07T00:18:15;1.90;99.90
5210;DHT22;2624;48.048;11.706;2022-12-07T00:23:16;1.90;99.90
5210;DHT22;2624;48.048;11.706;2022-12-07T00:28:20;2.00;99.90
5210;DHT22;2624;48.048;11.706;2022-12-07T00:33:21;2.00;99.90
5210;DHT22;2624;48.048;11.706;2022-12-07T00:38:23;2.00;99.90
5210;DHT22;2624;48.048;11.706;2022-12-07T00:43:27;1.90;99.90
5210;DHT22;2624;48.048;11.706;2022-12-07T00:48:29;2.00;99.90
5210;DHT22;2624;48.048;11.706;2022-12-07T00:53:33;1.90;99.90
5210;DHT22;2624;48.048;11.706;2022-12-07T00:58:36;1.90;99.90
5210;DHT22;2624;48.048;11.706;2022-12-07T01:03:38;1.90;99.90
5210;DHT22;2624;48.048;11.706;2022-12-07T01:08:40;2.00;99.90
5210;DHT22;2624;48.048;11.706;2022-12-07T01:13:43;1.90;99.90
5210;DHT22;2624;48.048;11.706;2022-12-07T01:18:47;1.90;99.90
5210;DHT22;2624;48.048;11.706;2022-12-07T01:23:49;1.90;99.90
5210;DHT22;2624;48.048;11.706;2022-12-07T01:28:53;1.80;99.90
5210;DHT22;2624;48.048;11.706;2022-12-07T01:33:57;1.90;99.90
5210;DHT22;2624;48.048;11.706;2022-12-07T01:39:00;1.90;99.90
5210;DHT22;2624;48.048;11.706;2022-12-07T01:44:23;1.80;99.90
5210;DHT22;2624;48.048;11.706;2022-12-07T01:49:29;1.90;99.90
5210;DHT22;2624;48.048;11.706;2022-12-07T01:54:33;1.90;99.90
5210;DHT22;2624;48.048;11.706;2022-12-07T01:59:36;1.90;99.90
5210;DHT22;2624;48.048;11.706;2022-12-07T02:04:39;1.90;99.90
5210;DHT22;2624;48.048;11.706;2022-12-07T02:09:41;2.00;99.90
5210;DHT22;2624;48.048;11.706;2022-12-07T02:14:44;1.90;99.90
5210;DHT22;2624;48.048;11.706;2022-12-07T02:20:07;1.90;99.90
5210;DHT22;2624;48.048;11.706;2022-12-07T02:25:19;1.90;99.90
5210;DHT22;2624;48.048;11.706;2022-12-07T02:30:29;1.90;99.90
5210;DHT22;2624;48.048;11.706;2022-12-07T02:35:35;1.90;99.90
5210;DHT22;2624;48.048;11.706;2022-12-07T02:40:44;1.90;99.90
5210;DHT22;2624;48.048;11.706;2022-12-07T02:45:52;1.90;99.90
5210;DHT22;2624;48.048;11.706;2022-12-07T02:50:55;1.90;99.90
5210;DHT22;2624;48.048;11.706;2022-12-07T02:55:57;1.90;99.90
5210;DHT22;2624;48.048;11.706;2022-12-07T03:06:25;1.80;99.90
5210;DHT22;2624;48.048;11.706;2022-12-07T03:11:34;1.90;99.90
5210;DHT22;2624;48.048;11.706;2022-12-07T03:16:43;1.80;99.90
5210;DHT22;2624;48.048;11.706;2022-12-07T03:21:49;1.80;99.90
5210;DHT22;2624;48.048;11.706;2022-12-07T03:26:56;1.80;99.90
5210;DHT22;2624;48.048;11.706;2022-12-07T03:32:06;1.70;99.90
5210;DHT22;2624;48.048;11.706;2022-12-07T03:37:14;1.80;99.90
5210;DHT22;2624;48.048;11.706;2022-12-07T03:42:17;1.90;99.90
5210;DHT22;2624;48.048;11.706;2022-12-07T03:47:26;1.80;99.90
5210;DHT22;2624;48.048;11.706;2022-12-07T03:52:33;1.80;99.90
5210;DHT22;2624;48.048;11.706;2022-12-07T03:57:38;1.70;99.90
5210;DHT22;2624;48.048;11.706;2022-12-07T04:02:43;1.70;99.90
5210;DHT22;2624;48.048;11.706;2022-12-07T04:07:44;1.70;99.90
5210;DHT22;2624;48.048;11.706;2022-12-07T04:12:46;1.80;99.90
5210;DHT22;2624;48.048;11.706;2022-12-07T04:17:49;1.80;99.90
5210;DHT22;2624;48.048;11.706;2022-12-07T04:22:51;1.80;99.90
5210;DHT22;2624;48.048;11.706;2022-12-07T04:27:53;1.80;99.90
5210;DHT22;2624;48.048;11.706;2022-12-07T04:32:56;1.80;99.90
5210;DHT22;2624;48.048;11.706;2022-12-07T04:37:58;1.90;99.90
5210;DHT22;2624;48.048;11.706;2022-12-07T04:43:00;1.80;99.90
5210;DHT22;2624;48.048;11.706;2022-12-07T04:48:03;1.80;99.90
5210;DHT22;2624;48.048;11.706;2022-12-07T04:53:05;1.80;99.90
5210;DHT22;2624;48.048;11.706;2022-12-07T04:58:07;1.80;99.90
5210;DHT22;2624;48.048;11.706;2022-12-07T05:03:10;1.80;99.90
5210;DHT22;2624;48.048;11.706;2022-12-07T05:08:12;1.90;99.90
5210;DHT22;2624;48.048;11.706;2022-12-07T05:13:14;1.80;99.90
5210;DHT22;2624;48.048;11.706;2022-12-07T05:18:17;1.90;99.90
5210;DHT22;2624;48.048;11.706;2022-12-07T05:23:19;1.80;99.90
5210;DHT22;2624;48.048;11.706;2022-12-07T05:28:21;1.90;99.90
5210;DHT22;2624;48.048;11.706;2022-12-07T05:33:25;1.80;99.90
5210;DHT22;2624;48.048;11.706;2022-12-07T05:38:28;1.60;99.90
5210;DHT22;2624;48.048;11.706;2022-12-07T05:43:30;2.00;99.90
5210;DHT22;2624;48.048;11.706;2022-12-07T05:48:33;1.90;99.90
5210;DHT22;2624;48.048;11.706;2022-12-07T05:53:37;1.80;99.90
5210;DHT22;2624;48.048;11.706;2022-12-07T05:58:38;1.70;99.90
5210;DHT22;2624;48.048;11.706;2022-12-07T06:03:59;1.80;99.90
5210;DHT22;2624;48.048;11.706;2022-12-07T06:09:01;1.80;99.90
5210;DHT22;2624;48.048;11.706;2022-12-07T06:14:03;2.10;99.90
5210;DHT22;2624;48.048;11.706;2022-12-07T06:19:06;3.80;99.90
5210;DHT22;2624;48.048;11.706;2022-12-07T06:24:10;1.80;99.90
5210;DHT22;2624;48.048;11.706;2022-12-07T06:29:13;1.80;99.90
5210;DHT22;2624;48.048;11.706;2022-12-07T06:34:17;1.70;99.90
5210;DHT22;2624;48.048;11.706;2022-12-07T06:39:20;1.80;99.90
5210;DHT22;2624;48.048;11.706;2022-12-07T06:44:23;1.80;99.90
5210;DHT22;2624;48.048;11.706;2022-12-07T06:49:26;1.80;99.90
5210;DHT22;2624;48.048;11.706;2022-12-07T06:54:28;1.80;99.90
5210;DHT22;2624;48.048;11.706;2022-12-07T06:59:30;1.70;99.90
5210;DHT22;2624;48.048;11.706;2022-12-07T07:04:33;1.70;99.90
5210;DHT22;2624;48.048;11.706;2022-12-07T07:09:35;1.50;99.90
5210;DHT22;2624;48.048;11.706;2022-12-07T07:14:37;1.70;99.90
5210;DHT22;2624;48.048;11.706;2022-12-07T07:19:40;1.70;99.90
5210;DHT22;2624;48.048;11.706;2022-12-07T07:24:42;1.60;99.90
5210;DHT22;2624;48.048;11.706;2022-12-07T07:29:44;1.60;99.90
5210;DHT22;2624;48.048;11.706;2022-12-07T07:34:47;1.50;99.90
5210;DHT22;2624;48.048;11.706;2022-12-07T07:39:49;1.50;99.90
5210;DHT22;2624;48.048;11.706;2022-12-07T07:44:51;1.60;99.90
5210;DHT22;2624;48.048;11.706;2022-12-07T07:49:54;1.60;99.90
5210;DHT22;2624;48.048;11.706;2022-12-07T07:54:56;1.50;99.90
5210;DHT22;2624;48.048;11.706;2022-12-07T07:59:58;1.60;99.90
5210;DHT22;2624;48.048;11.706;2022-12-07T08:05:01;1.40;99.90
5210;DHT22;2624;48.048;11.706;2022-12-07T08:10:04;1.50;99.90
5210;DHT22;2624;48.048;11.706;2022-12-07T08:15:07;1.50;99.90
5210;DHT22;2624;48.048;11.706;2022-12-07T08:20:10;1.50;99.90
5210;DHT22;2624;48.048;11.706;2022-12-07T08:25:12;1.50;99.90
5210;DHT22;2624;48.048;11.706;2022-12-07T08:30:14;1.50;99.90
5210;DHT22;2624;48.048;11.706;2022-12-07T08:35:17;1.50;99.90
5210;DHT22;2624;48.048;11.706;2022-12-07T08:40:19;1.50;99.90
5210;DHT22;2624;48.048;11.706;2022-12-07T08:45:22;1.50;99.90
5210;DHT22;2624;48.048;11.706;2022-12-07T08:50:25;1.50;99.90
5210;DHT22;2624;48.048;11.706;2022-12-07T08:55:28;1.60;99.90
5210;DHT22;2624;48.048;11.706;2022-12-07T09:00:30;1.50;99.90
5210;DHT22;2624;48.048;11.706;2022-12-07T09:05:33;1.50;99.90
5210;DHT22;2624;48.048;11.706;2022-12-07T09:10:35;1.60;99.90
5210;DHT22;2624;48.048;11.706;2022-12-07T09:15:37;1.60;99.90
5210;DHT22;2624;48.048;11.706;2022-12-07T09:20:40;1.70;99.90
5210;DHT22;2624;48.048;11.706;2022-12-07T09:25:42;1.70;99.90
5210;DHT22;2624;48.048;11.706;2022-12-07T09:30:45;1.60;99.90
5210;DHT22;2624;48.048;11.706;2022-12-07T09:35:51;1.70;99.90
5210;DHT22;2624;48.048;11.706;2022-12-07T09:40:54;1.70;99.90
5210;DHT22;2624;48.048;11.706;2022-12-07T09:45:56;1.70;99.90
5210;DHT22;2624;48.048;11.706;2022-12-07T09:51:00;1.70;99.90
5210;DHT22;2624;48.048;11.706;2022-12-07T09:56:04;1.80;99.90
5210;DHT22;2624;48.048;11.706;2022-12-07T10:01:11;1.80;99.90
5210;DHT22;2624;48.048;11.706;2022-12-07T10:06:15;1.80;99.90
5210;DHT22;2624;48.048;11.706;2022-12-07T10:11:17;1.80;99.90
5210;DHT22;2624;48.048;11.706;2022-12-07T10:16:37;1.90;99.90
5210;DHT22;2624;48.048;11.706;2022-12-07T10:21:59;1.90;99.90
5210;DHT22;2624;48.048;11.706;2022-12-07T10:27:02;1.90;99.90
5210;DHT22;2624;48.048;11.706;2022-12-07T10:32:27;1.90;99.90
5210;DHT22;2624;48.048;11.706;2022-12-07T10:37:40;2.00;99.90
5210;DHT22;2624;48.048;11.706;2022-12-07T10:42:59;1.90;99.90
5210;DHT22;2624;48.048;11.706;2022-12-07T10:48:07;2.00;99.90
5210;DHT22;2624;48.048;11.706;2022-12-07T10:58:50;2.10;99.90
5210;DHT22;2624;48.048;11.706;2022-12-07T11:04:07;2.20;99.90
5210;DHT22;2624;48.048;11.706;2022-12-07T11:09:49;2.20;99.90
5210;DHT22;2624;48.048;11.706;2022-12-07T11:14:56;2.20;99.90
5210;DHT22;2624;48.048;11.706;2022-12-07T11:20:05;2.20;99.90
5210;DHT22;2624;48.048;11.706;2022-12-07T11:25:24;2.20;99.90
5210;DHT22;2624;48.048;11.706;2022-12-07T11:30:35;2.30;99.90
5210;DHT22;2624;48.048;11.706;2022-12-07T11:35:49;2.40;99.90
5210;DHT22;2624;48.048;11.706;2022-12-07T11:41:01;2.60;99.90
5210;DHT22;2624;48.048;11.706;2022-12-07T11:46:15;2.50;99.90
5210;DHT22;2624;48.048;11.706;2022-12-07T11:51:20;2.50;99.90
5210;DHT22;2624;48.048;11.706;2022-12-07T11:56:26;2.40;99.90
5210;DHT22;2624;48.048;11.706;2022-12-07T12:01:42;2.40;99.90
5210;DHT22;2624;48.048;11.706;2022-12-07T12:06:45;2.40;99.90
5210;DHT22;2624;48.048;11.706;2022-12-07T12:12:00;2.50;99.90
5210;DHT22;2624;48.048;11.706;2022-12-07T12:17:27;2.40;99.90
5210;DHT22;2624;48.048;11.706;2022-12-07T12:22:37;2.40;99.90
5210;DHT22;2624;48.048;11.706;2022-12-07T12:27:46;2.40;99.90
5210;DHT22;2624;48.048;11.706;2022-12-07T12:32:49;2.40;99.90
5210;DHT22;2624;48.048;11.706;2022-12-07T12:37:53;2.40;99.90
5210;DHT22;2624;48.048;11.706;2022-12-07T12:42:57;2.40;99.90
5210;DHT22;2624;48.048;11.706;2022-12-07T12:48:00;2.50;99.90
5210;DHT22;2624;48.048;11.706;2022-12-07T12:53:21;2.50;99.90
5210;DHT22;2624;48.048;11.706;2022-12-07T12:58:38;2.50;99.90
5210;DHT22;2624;48.048;11.706;2022-12-07T13:03:52;2.00;99.90
5210;DHT22;2624;48.048;11.706;2022-12-07T13:08:57;2.50;99.90
5210;DHT22;2624;48.048;11.706;2022-12-07T13:14:41;2.50;99.90
5210;DHT22;2624;48.048;11.706;2022-12-07T13:19:58;2.50;99.90
5210;DHT22;2624;48.048;11.706;2022-12-07T13:25:07;2.40;99.90
5210;DHT22;2624;48.048;11.706;2022-12-07T13:30:17;2.50;99.90
5210;DHT22;2624;48.048;11.706;2022-12-07T13:35:33;2.50;99.90
5210;DHT22;2624;48.048;11.706;2022-12-07T13:40:35;2.40;99.90
5210;DHT22;2624;48.048;11.706;2022-12-07T13:45:41;2.50;99.90
5210;DHT22;2624;48.048;11.706;2022-12-07T13:50:55;2.40;99.90
5210;DHT22;2624;48.048;11.706;2022-12-07T13:55:59;2.40;99.90
5210;DHT22;2624;48.048;11.706;2022-12-07T14:01:03;2.40;99.90
5210;DHT22;2624;48.048;11.706;2022-12-07T14:06:14;2.40;99.90
5210;DHT22;2624;48.048;11.706;2022-12-07T14:11:18;2.50;99.90
5210;DHT22;2624;48.048;11.706;2022-12-07T14:16:26;2.40;99.90
5210;DHT22;2624;48.048;11.706;2022-12-07T14:21:30;2.40;99.90
5210;DHT22;2624;48.048;11.706;2022-12-07T14:26:32;2.40;99.90
5210;DHT22;2624;48.048;11.706;2022-12-07T14:31:35;2.40;99.90
5210;DHT22;2624;48.048;11.706;2022-12-07T14:36:37;2.30;99.90
5210;DHT22;2624;48.048;11.706;2022-12-07T14:41:39;2.30;99.90
5210;DHT22;2624;48.048;11.706;2022-12-07T14:46:54;2.30;99.90
5210;DHT22;2624;48.048;11.706;2022-12-07T14:51:56;2.20;99.90
5210;DHT22;2624;48.048;11.706;2022-12-07T14:56:58;2.20;99.90
5210;DHT22;2624;48.048;11.706;2022-12-07T15:02:01;2.10;99.90
5210;DHT22;2624;48.048;11.706;2022-12-07T15:07:04;2.10;99.90
5210;DHT22;2624;48.048;11.706;2022-12-07T15:12:06;2.00;99.90
5210;DHT22;2624;48.048;11.706;2022-12-07T15:17:11;2.00;99.90
5210;DHT22;2624;48.048;11.706;2022-12-07T15:22:13;1.90;99.90
5210;DHT22;2624;48.048;11.706;2022-12-07T15:27:15;1.90;99.90
5210;DHT22;2624;48.048;11.706;2022-12-07T15:32:18;1.80;99.90
5210;DHT22;2624;48.048;11.706;2022-12-07T15:37:20;1.60;99.90
5210;DHT22;2624;48.048;11.706;2022-12-07T15:42:22;1.60;99.90
5210;DHT22;2624;48.048;11.706;2022-12-07T15:47:25;1.70;99.90
5210;DHT22;2624;48.048;11.706;2022-12-07T15:52:27;1.80;99.90
5210;DHT22;2624;48.048;11.706;2022-12-07T15:57:29;1.60;99.90
5210;DHT22;2624;48.048;11.706;2022-12-07T16:02:32;1.60;99.90
5210;DHT22;2624;48.048;11.706;2022-12-07T16:07:34;1.50;99.90
5210;DHT22;2624;48.048;11.706;2022-12-07T16:12:36;1.40;99.90
5210;DHT22;2624;48.048;11.706;2022-12-07T16:17:39;1.60;99.90
5210;DHT22;2624;48.048;11.706;2022-12-07T16:22:41;1.60;99.90
5210;DHT22;2624;48.048;11.706;2022-12-07T16:27:42;1.30;99.90
5210;DHT22;2624;48.048;11.706;2022-12-07T16:32:46;1.30;99.90
5210;DHT22;2624;48.048;11.706;2022-12-07T16:37:47;1.60;99.90
5210;DHT22;2624;48.048;11.706;2022-12-07T16:42:49;1.20;99.90
5210;DHT22;2624;48.048;11.706;2022-12-07T16:47:52;1.10;99.90
5210;DHT22;2624;48.048;11.706;2022-12-07T16:52:54;1.40;99.90
5210;DHT22;2624;48.048;11.706;2022-12-07T16:57:56;1.50;99.90
5210;DHT22;2624;48.048;11.706;2022-12-07T17:02:59;1.10;99.90
5210;DHT22;2624;48.048;11.706;2022-12-07T17:08:01;1.40;99.90
5210;DHT22;2624;48.048;11.706;2022-12-07T17:13:04;1.30;99.90
5210;DHT22;2624;48.048;11.706;2022-12-07T17:18:30;1.50;99.90
5210;DHT22;2624;48.048;11.706;2022-12-07T17:23:34;1.30;99.90
5210;DHT22;2624;48.048;11.706;2022-12-07T17:28:37;1.30;99.90
5210;DHT22;2624;48.048;11.706;2022-12-07T17:33:40;1.40;99.90
5210;DHT22;2624;48.048;11.706;2022-12-07T17:38:42;1.30;99.90
5210;DHT22;2624;48.048;11.706;2022-12-07T17:43:44;1.30;99.90
5210;DHT22;2624;48.048;11.706;2022-12-07T17:48:47;1.40;99.90
5210;DHT22;2624;48.048;11.706;2022-12-07T17:53:49;1.00;99.90
5210;DHT22;2624;48.048;11.706;2022-12-07T17:58:51;1.00;99.90
5210;DHT22;2624;48.048;11.706;2022-12-07T18:03:54;1.10;99.90
5210;DHT22;2624;48.048;11.706;2022-12-07T18:08:56;1.00;99.90
5210;DHT22;2624;48.048;11.706;2022-12-07T18:13:58;1.20;99.90
5210;DHT22;2624;48.048;11.706;2022-12-07T18:19:03;1.30;99.90
5210;DHT22;2624;48.048;11.706;2022-12-07T18:24:09;1.30;99.90
5210;DHT22;2624;48.048;11.706;2022-12-07T18:29:13;1.30;99.90
5210;DHT22;2624;48.048;11.706;2022-12-07T18:34:17;1.40;99.90
5210;DHT22;2624;48.048;11.706;2022-12-07T18:39:19;1.40;99.90
5210;DHT22;2624;48.048;11.706;2022-12-07T18:44:21;1.40;99.90
5210;DHT22;2624;48.048;11.706;2022-12-07T18:49:24;1.40;99.90
5210;DHT22;2624;48.048;11.706;2022-12-07T18:54:26;1.40;99.90
5210;DHT22;2624;48.048;11.706;2022-12-07T18:59:28;1.40;99.90
5210;DHT22;2624;48.048;11.706;2022-12-07T19:04:50;1.30;99.90
5210;DHT22;2624;48.048;11.706;2022-12-07T19:09:52;1.40;99.90
5210;DHT22;2624;48.048;11.706;2022-12-07T19:14:54;1.40;99.90
5210;DHT22;2624;48.048;11.706;2022-12-07T19:19:57;1.40;99.90
5210;DHT22;2624;48.048;11.706;2022-12-07T19:24:59;1.30;99.90
5210;DHT22;2624;48.048;11.706;2022-12-07T19:30:01;1.30;99.90
5210;DHT22;2624;48.048;11.706;2022-12-07T19:35:04;1.10;99.90
5210;DHT22;2624;48.048;11.706;2022-12-07T19:40:08;1.20;99.90
5210;DHT22;2624;48.048;11.706;2022-12-07T19:45:10;1.20;99.90
5210;DHT22;2624;48.048;11.706;2022-12-07T19:50:13;1.30;99.90
5210;DHT22;2624;48.048;11.706;2022-12-07T19:55:15;1.20;99.90
5210;DHT22;2624;48.048;11.706;2022-12-07T20:00:18;1.30;99.90
5210;DHT22;2624;48.048;11.706;2022-12-07T20:05:21;1.30;99.90
5210;DHT22;2624;48.048;11.706;2022-12-07T20:10:24;1.20;99.90
5210;DHT22;2624;48.048;11.706;2022-12-07T20:15:26;1.40;99.90
5210;DHT22;2624;48.048;11.706;2022-12-07T20:20:29;1.30;99.90
5210;DHT22;2624;48.048;11.706;2022-12-07T20:25:34;-0.80;99.90
5210;DHT22;2624;48.048;11.706;2022-12-07T20:30:36;1.40;99.90
5210;DHT22;2624;48.048;11.706;2022-12-07T20:35:39;1.20;99.90
5210;DHT22;2624;48.048;11.706;2022-12-07T20:40:45;1.00;99.90
5210;DHT22;2624;48.048;11.706;2022-12-07T20:45:48;0.80;99.90
5210;DHT22;2624;48.048;11.706;2022-12-07T20:50:52;1.00;99.90
5210;DHT22;2624;48.048;11.706;2022-12-07T20:55:54;0.90;99.90
5210;DHT22;2624;48.048;11.706;2022-12-07T21:00:59;1.00;99.90
5210;DHT22;2624;48.048;11.706;2022-12-07T21:06:02;1.00;99.90
5210;DHT22;2624;48.048;11.706;2022-12-07T21:11:07;1.10;99.90
5210;DHT22;2624;48.048;11.706;2022-12-07T21:16:11;1.20;99.90
5210;DHT22;2624;48.048;11.706;2022-12-07T21:21:16;1.00;99.90
5210;DHT22;2624;48.048;11.706;2022-12-07T21:26:20;1.10;99.90
5210;DHT22;2624;48.048;11.706;2022-12-07T21:31:22;1.10;99.90
5210;DHT22;2624;48.048;11.706;2022-12-07T21:36:25;1.00;99.90
5210;DHT22;2624;48.048;11.706;2022-12-07T21:41:28;1.20;99.90
5210;DHT22;2624;48.048;11.706;2022-12-07T21:46:30;1.20;99.90
5210;DHT22;2624;48.048;11.706;2022-12-07T21:51:34;1.10;99.90
5210;DHT22;2624;48.048;11.706;2022-12-07T21:56:38;1.00;99.90
5210;DHT22;2624;48.048;11.706;2022-12-07T22:01:41;1.00;99.90
5210;DHT22;2624;48.048;11.706;2022-12-07T22:11:50;0.90;99.90
5210;DHT22;2624;48.048;11.706;2022-12-07T22:16:52;0.90;99.90
5210;DHT22;2624;48.048;11.706;2022-12-07T22:21:55;0.90;99.90
5210;DHT22;2624;48.048;11.706;2022-12-07T22:26:57;1.00;99.90
5210;DHT22;2624;48.048;11.706;2022-12-07T22:31:59;1.00;99.90
5210;DHT22;2624;48.048;11.706;2022-12-07T22:37:02;0.90;99.90
5210;DHT22;2624;48.048;11.706;2022-12-07T22:42:04;0.90;99.90
5210;DHT22;2624;48.048;11.706;2022-12-07T22:47:06;1.00;99.90
5210;DHT22;2624;48.048;11.706;2022-12-07T22:52:09;0.90;99.90
5210;DHT22;2624;48.048;11.706;2022-12-07T22:57:11;1.10;99.90
5210;DHT22;2624;48.048;11.706;2022-12-07T23:02:13;1.00;99.90
5210;DHT22;2624;48.048;11.706;2022-12-07T23:07:16;0.90;99.90
5210;DHT22;2624;48.048;11.706;2022-12-07T23:12:18;0.90;99.90
5210;DHT22;2624;48.048;11.706;2022-12-07T23:17:38;0.80;99.90
5210;DHT22;2624;48.048;11.706;2022-12-07T23:22:41;1.00;99.90
5210;DHT22;2624;48.048;11.706;2022-12-07T23:27:43;0.90;99.90
5210;DHT22;2624;48.048;11.706;2022-12-07T23:32:44;0.90;99.90
5210;DHT22;2624;48.048;11.706;2022-12-07T23:37:48;0.80;99.90
5210;DHT22;2624;48.048;11.706;2022-12-07T23:42:50;0.90;99.90
5210;DHT22;2624;48.048;11.706;2022-12-07T23:47:52;0.90;99.90
5210;DHT22;2624;48.048;11.706;2022-12-07T23:52:55;0.80;99.90
5210;DHT22;2624;48.048;11.706;2022-12-07T23:57:57;0.70;99.90
